Time;durP1;ratioP1;P1;durP2;ratioP2;P2;SDS_P1;SDS_P2;PMS_P1;PMS_P2;Temp;Humidity;BMP_temperature;BMP_pressure;BME280_temperature;BME280_humidity;BME280_pressure;Samples;Min_cycle;Max_cycle;Signal;HPM_P1;HPM_P2
2023/07/12 00:00:50;;;;;;;12.55;3.08;;;19.60;99.90;;;;;;5132908;27;20063;-72
2023/07/12 00:03:17;;;;;;;11.23;3.50;;;19.60;99.90;;;;;;5133006;27;20527;-72
2023/07/12 00:05:44;;;;;;;16.33;3.30;;;19.50;99.90;;;;;;5108088;28;20023;-72
2023/07/12 00:08:24;;;;;;;15.57;3.75;;;19.50;99.90;;;;;;5128005;27;20019;-72
2023/07/12 00:10:52;;;;;;;15.77;3.70;;;19.50;99.90;;;;;;5123607;27;20375;-72
2023/07/12 00:13:18;;;;;;;15.90;3.38;;;19.50;99.90;;;;;;5133045;27;20433;-73
2023/07/12 00:15:46;;;;;;;15.23;3.42;;;19.40;99.90;;;;;;5124645;27;20015;-73
2023/07/12 00:18:19;;;;;;;16.02;3.92;;;19.40;99.90;;;;;;5133003;27;20487;-73
2023/07/12 00:20:47;;;;;;;21.42;4.03;;;19.30;99.90;;;;;;5125083;27;20100;-73
2023/07/12 00:23:14;;;;;;;15.90;3.85;;;19.20;99.90;;;;;;5127800;27;20027;-73
2023/07/12 00:25:41;;;;;;;23.05;4.25;;;19.20;99.90;;;;;;5132873;27;20038;-73
2023/07/12 00:28:25;;;;;;;19.58;4.28;;;19.20;99.90;;;;;;5131246;27;20023;-73
2023/07/12 00:30:52;;;;;;;23.40;4.22;;;19.10;99.90;;;;;;5132495;27;20117;-72
2023/07/12 00:33:19;;;;;;;22.60;4.70;;;19.10;99.90;;;;;;5133380;27;20038;-72
2023/07/12 00:35:46;;;;;;;19.83;3.97;;;19.10;99.90;;;;;;5121608;27;20016;-72
2023/07/12 00:38:23;;;;;;;18.90;4.75;;;19.10;99.90;;;;;;5132664;27;20057;-72
2023/07/12 00:41:33;;;;;;;14.65;4.00;;;19.00;99.90;;;;;;5132423;27;20043;-72
2023/07/12 00:44:05;;;;;;;19.00;4.40;;;19.10;99.90;;;;;;5125787;27;20033;-72
2023/07/12 00:46:38;;;;;;;19.52;4.53;;;19.10;99.90;;;;;;5129101;27;20100;-72
2023/07/12 00:49:04;;;;;;;17.30;4.28;;;19.00;99.90;;;;;;5132631;27;20126;-73
2023/07/12 00:51:48;;;;;;;17.25;4.55;;;19.00;99.90;;;;;;5122672;27;20073;-74
2023/07/12 00:54:22;;;;;;;22.15;4.32;;;19.00;99.90;;;;;;5132454;27;20032;-73
2023/07/12 00:56:48;;;;;;;15.90;4.27;;;18.80;99.90;;;;;;5132408;27;20019;-72
2023/07/12 00:59:28;;;;;;;16.58;4.38;;;18.80;99.90;;;;;;5132336;27;20124;-72
2023/07/12 01:01:59;;;;;;;18.60;5.15;;;18.70;99.90;;;;;;5131967;27;20023;-72
2023/07/12 01:04:28;;;;;;;21.98;4.85;;;18.70;99.90;;;;;;5132297;27;20038;-72
2023/07/12 01:06:55;;;;;;;21.58;4.63;;;18.70;99.90;;;;;;5132136;27;20047;-73
2023/07/12 01:09:22;;;;;;;23.35;5.50;;;18.60;99.90;;;;;;5132253;27;20076;-72
2023/07/12 01:11:48;;;;;;;16.33;4.75;;;18.60;99.90;;;;;;5131848;27;20106;-72
2023/07/12 01:14:16;;;;;;;21.13;4.65;;;18.60;99.90;;;;;;5132104;27;20458;-73
2023/07/12 01:16:45;;;;;;;18.80;4.55;;;18.60;99.90;;;;;;5113169;27;20023;-72
2023/07/12 01:19:12;;;;;;;17.90;4.18;;;18.50;99.90;;;;;;5131656;27;20037;-72
2023/07/12 01:21:42;;;;;;;22.65;4.72;;;18.50;99.90;;;;;;5131743;27;20379;-72
2023/07/12 01:24:09;;;;;;;26.40;4.63;;;18.50;99.90;;;;;;5131712;27;20024;-72
2023/07/12 01:26:41;;;;;;;20.75;4.88;;;18.40;99.90;;;;;;5131757;27;20052;-72
2023/07/12 01:29:08;;;;;;;21.83;4.78;;;18.40;99.90;;;;;;5131623;27;20475;-72
2023/07/12 01:31:35;;;;;;;19.17;5.35;;;18.40;99.90;;;;;;5117967;27;20023;-72
2023/07/12 01:34:01;;;;;;;22.38;5.05;;;18.40;99.90;;;;;;5126582;27;20016;-72
2023/07/12 01:36:29;;;;;;;24.02;5.38;;;18.40;99.90;;;;;;5125646;27;20068;-72
2023/07/12 01:38:56;;;;;;;19.15;4.88;;;18.40;99.90;;;;;;5131373;27;20023;-72
2023/07/12 01:41:23;;;;;;;23.10;5.00;;;18.40;99.90;;;;;;5131658;27;20107;-72
2023/07/12 01:43:49;;;;;;;18.88;4.22;;;18.40;99.90;;;;;;5131238;27;20054;-72
2023/07/12 01:46:15;;;;;;;18.65;4.30;;;18.40;99.90;;;;;;5131640;27;20053;-72
2023/07/12 01:48:42;;;;;;;23.33;4.82;;;18.40;99.90;;;;;;5131312;27;20035;-72
2023/07/12 01:51:08;;;;;;;17.52;4.75;;;18.40;99.90;;;;;;5131168;27;20042;-73
2023/07/12 01:53:35;;;;;;;25.10;4.65;;;18.40;99.90;;;;;;5126756;27;20027;-73
2023/07/12 01:56:02;;;;;;;25.17;4.35;;;18.40;99.90;;;;;;5124046;27;20011;-73
2023/07/12 01:58:28;;;;;;;17.40;4.20;;;18.40;99.90;;;;;;5130664;27;20023;-73
2023/07/12 02:00:54;;;;;;;17.60;4.25;;;18.40;99.90;;;;;;5131247;27;20034;-72
2023/07/12 02:03:20;;;;;;;20.02;4.10;;;18.50;99.90;;;;;;5130839;27;20023;-73
2023/07/12 02:05:46;;;;;;;23.75;3.83;;;18.50;99.90;;;;;;5131255;27;20029;-73
2023/07/12 02:08:12;;;;;;;17.08;3.72;;;18.50;99.90;;;;;;5123786;27;20019;-73
2023/07/12 02:10:37;;;;;;;18.25;3.78;;;18.50;99.90;;;;;;5131051;27;20007;-73
2023/07/12 02:13:04;;;;;;;21.65;3.53;;;18.50;99.90;;;;;;5130699;27;20027;-73
2023/07/12 02:15:30;;;;;;;18.77;3.72;;;18.50;99.90;;;;;;5131049;27;20022;-71
2023/07/12 02:17:56;;;;;;;17.17;3.58;;;18.50;99.90;;;;;;5130734;27;20027;-73
2023/07/12 02:20:22;;;;;;;11.15;3.10;;;18.50;99.90;;;;;;5118547;28;20055;-72
2023/07/12 02:22:49;;;;;;;17.50;3.70;;;18.40;99.90;;;;;;5130304;27;20019;-73
2023/07/12 02:25:16;;;;;;;23.40;3.58;;;18.40;99.90;;;;;;5129435;27;20030;-73
2023/07/12 02:27:44;;;;;;;15.20;3.35;;;18.40;99.90;;;;;;5130359;28;20022;-73
2023/07/12 02:30:13;;;;;;;16.80;3.90;;;18.40;99.90;;;;;;5129090;28;20015;-73
2023/07/12 02:32:39;;;;;;;17.15;3.75;;;18.40;99.90;;;;;;5124670;28;20023;-73
2023/07/12 02:35:05;;;;;;;13.85;3.33;;;18.40;99.90;;;;;;5115268;28;20034;-73
2023/07/12 02:37:31;;;;;;;15.85;3.58;;;18.40;99.90;;;;;;5130802;28;20319;-73
2023/07/12 02:39:57;;;;;;;21.50;3.80;;;18.30;99.90;;;;;;5130443;28;20034;-73
2023/07/12 02:42:22;;;;;;;15.90;3.88;;;18.20;99.90;;;;;;5130852;28;20023;-73
2023/07/12 02:44:49;;;;;;;18.35;4.20;;;18.30;99.90;;;;;;5111789;28;20022;-73
2023/07/12 02:47:15;;;;;;;12.48;3.20;;;18.30;99.90;;;;;;5130592;28;20034;-73
2023/07/12 02:49:40;;;;;;;22.52;4.25;;;18.30;99.90;;;;;;5131035;27;20031;-73
2023/07/12 02:52:07;;;;;;;22.08;5.10;;;18.30;99.90;;;;;;5134367;27;21070;-73
2023/07/12 02:54:34;;;;;;;15.77;3.95;;;18.30;99.90;;;;;;5134755;27;20057;-73
2023/07/12 02:57:00;;;;;;;21.50;4.20;;;18.30;99.90;;;;;;5134589;27;20011;-73
2023/07/12 02:59:26;;;;;;;19.27;4.22;;;18.30;99.90;;;;;;5116440;27;20031;-73
2023/07/12 03:01:53;;;;;;;21.85;4.55;;;18.30;99.90;;;;;;5132487;27;20023;-73
2023/07/12 03:04:19;;;;;;;20.15;4.60;;;18.40;99.90;;;;;;5133593;27;20039;-73
2023/07/12 03:06:45;;;;;;;20.58;3.97;;;18.30;99.90;;;;;;5132907;27;20375;-73
2023/07/12 03:09:11;;;;;;;18.52;3.97;;;18.30;99.90;;;;;;5115713;27;20019;-72
2023/07/12 03:11:37;;;;;;;16.38;3.78;;;18.30;99.90;;;;;;5132781;27;20086;-73
2023/07/12 03:14:03;;;;;;;20.48;4.50;;;18.30;99.90;;;;;;5133524;27;20023;-72
2023/07/12 03:16:29;;;;;;;18.48;4.18;;;18.20;99.90;;;;;;5133421;27;20098;-72
2023/07/12 03:18:55;;;;;;;19.40;4.40;;;18.20;99.90;;;;;;5134003;27;20522;-73
2023/07/12 03:21:21;;;;;;;16.33;4.68;;;18.20;99.90;;;;;;5134025;27;20379;-73
2023/07/12 03:23:47;;;;;;;18.90;5.30;;;18.20;99.90;;;;;;5134541;27;20019;-73
2023/07/12 03:26:13;;;;;;;19.67;4.60;;;18.20;99.90;;;;;;5134465;27;20452;-72
2023/07/12 03:28:39;;;;;;;16.38;4.57;;;18.20;99.90;;;;;;5134181;27;20019;-73
2023/07/12 03:31:07;;;;;;;13.93;4.53;;;18.20;99.90;;;;;;5134039;27;20286;-73
2023/07/12 03:33:34;;;;;;;17.90;4.95;;;18.20;99.90;;;;;;5133993;27;20015;-73
2023/07/12 03:36:00;;;;;;;16.52;4.30;;;18.10;99.90;;;;;;5104650;27;20051;-73
2023/07/12 03:38:26;;;;;;;17.42;4.90;;;18.10;99.90;;;;;;5113502;27;20029;-73
2023/07/12 03:40:56;;;;;;;16.10;5.00;;;18.10;99.90;;;;;;5133293;27;20068;-73
2023/07/12 03:43:24;;;;;;;18.10;4.78;;;18.10;99.90;;;;;;5134045;27;20019;-73
2023/07/12 03:45:51;;;;;;;17.40;4.88;;;18.10;99.90;;;;;;5133604;27;20498;-72
2023/07/12 03:48:17;;;;;;;18.27;4.72;;;18.10;99.90;;;;;;5133605;27;20054;-73
2023/07/12 03:50:46;;;;;;;16.73;4.55;;;18.00;99.90;;;;;;5133189;27;20011;-73
2023/07/12 03:53:12;;;;;;;22.42;4.80;;;18.00;99.90;;;;;;5129829;27;20019;-70
2023/07/12 03:55:42;;;;;;;22.17;5.38;;;18.00;99.90;;;;;;5132179;27;20011;-70
2023/07/12 03:58:10;;;;;;;18.95;5.10;;;18.00;99.90;;;;;;5133468;27;20023;-70
2023/07/12 04:00:39;;;;;;;17.30;5.20;;;18.00;99.90;;;;;;5133097;27;20015;-72
2023/07/12 04:03:05;;;;;;;21.52;5.63;;;18.00;99.90;;;;;;5133450;27;20083;-73
2023/07/12 04:05:39;;;;;;;21.90;6.25;;;18.00;99.90;;;;;;5120606;27;20094;-73
2023/07/12 04:08:04;;;;;;;23.38;5.97;;;18.00;99.90;;;;;;5132888;27;20581;-73
2023/07/12 04:10:31;;;;;;;22.30;5.95;;;18.00;99.90;;;;;;5133249;27;20015;-73
2023/07/12 04:12:57;;;;;;;19.58;6.03;;;18.00;99.90;;;;;;5115089;27;20368;-73
2023/07/12 04:15:23;;;;;;;23.88;6.43;;;18.00;99.90;;;;;;5122416;27;20019;-73
2023/07/12 04:17:48;;;;;;;19.80;5.88;;;18.00;99.90;;;;;;5123930;27;20031;-72
2023/07/12 04:20:14;;;;;;;20.73;6.10;;;18.00;99.90;;;;;;5122107;27;20016;-73
2023/07/12 04:22:40;;;;;;;20.25;6.47;;;18.00;99.90;;;;;;5127953;27;20068;-72
2023/07/12 04:25:08;;;;;;;23.58;6.88;;;18.00;99.90;;;;;;5132438;27;20418;-73
2023/07/12 04:27:37;;;;;;;20.27;6.13;;;18.00;99.90;;;;;;5128206;27;20372;-73
2023/07/12 04:30:04;;;;;;;19.75;6.50;;;18.00;99.90;;;;;;5132832;27;20451;-73
2023/07/12 04:32:30;;;;;;;20.17;6.50;;;18.00;99.90;;;;;;5109929;28;20035;-73
2023/07/12 04:34:55;;;;;;;21.55;6.78;;;18.00;99.90;;;;;;5124013;27;20015;-73
2023/07/12 04:37:22;;;;;;;22.58;7.18;;;17.90;99.90;;;;;;5131916;27;20015;-73
2023/07/12 04:39:47;;;;;;;19.83;6.82;;;17.90;99.90;;;;;;5133223;27;20019;-73
2023/07/12 04:42:13;;;;;;;18.77;7.22;;;17.90;99.90;;;;;;5132799;27;20025;-73
2023/07/12 04:44:39;;;;;;;23.75;7.75;;;17.90;99.90;;;;;;5120076;27;20022;-73
2023/07/12 04:47:06;;;;;;;24.25;7.45;;;17.90;99.90;;;;;;5125384;27;20058;-73
2023/07/12 04:49:32;;;;;;;24.17;6.80;;;17.90;99.90;;;;;;5132877;27;20023;-74
2023/07/12 04:51:58;;;;;;;21.92;7.28;;;17.90;99.90;;;;;;5132455;27;20499;-73
2023/07/12 04:54:23;;;;;;;24.90;7.85;;;17.90;99.90;;;;;;5132133;27;20080;-72
2023/07/12 04:56:49;;;;;;;23.98;7.07;;;17.90;99.90;;;;;;5132649;27;20027;-74
2023/07/12 04:59:15;;;;;;;21.95;7.13;;;17.90;99.90;;;;;;5132294;27;20084;-73
2023/07/12 05:01:41;;;;;;;22.73;6.95;;;17.90;99.90;;;;;;5131009;27;20019;-73
2023/07/12 05:04:07;;;;;;;25.63;6.85;;;17.90;99.90;;;;;;5131353;27;20052;-73
2023/07/12 05:06:33;;;;;;;22.10;7.13;;;18.00;99.90;;;;;;5129758;27;20019;-73
2023/07/12 05:08:59;;;;;;;24.88;7.20;;;18.00;99.90;;;;;;5123970;27;20015;-73
2023/07/12 05:11:24;;;;;;;18.17;6.95;;;18.10;99.90;;;;;;5131650;27;20034;-73
2023/07/12 05:13:50;;;;;;;28.02;7.50;;;18.10;99.90;;;;;;5131210;27;20107;-73
2023/07/12 05:16:15;;;;;;;24.67;7.13;;;18.10;99.90;;;;;;5131623;27;20068;-73
2023/07/12 05:18:41;;;;;;;18.35;6.40;;;18.10;99.90;;;;;;5131563;27;20046;-73
2023/07/12 05:21:08;;;;;;;25.92;7.45;;;18.20;99.90;;;;;;5131416;27;20672;-73
2023/07/12 05:23:36;;;;;;;26.75;7.47;;;18.20;99.90;;;;;;5113140;27;20128;-73
2023/07/12 05:26:01;;;;;;;30.33;7.32;;;18.20;99.90;;;;;;5129330;27;20034;-73
2023/07/12 05:28:27;;;;;;;28.55;6.97;;;18.20;99.90;;;;;;5132464;27;20027;-83
2023/07/12 05:30:53;;;;;;;27.70;7.07;;;18.20;99.90;;;;;;5108452;27;20024;-73
2023/07/12 05:33:18;;;;;;;21.55;6.65;;;18.30;99.90;;;;;;5130917;27;20023;-73
2023/07/12 05:35:46;;;;;;;25.05;6.60;;;18.30;99.90;;;;;;5129727;27;20022;-71
2023/07/12 05:38:12;;;;;;;25.20;7.15;;;18.40;99.90;;;;;;5130941;27;20395;-71
2023/07/12 05:40:37;;;;;;;23.00;6.22;;;18.40;99.90;;;;;;5127422;27;20015;-71
2023/07/12 05:43:03;;;;;;;27.27;7.20;;;18.50;99.90;;;;;;5127367;27;20245;-75
2023/07/12 05:45:29;;;;;;;26.85;6.43;;;18.50;99.90;;;;;;5130217;27;20102;-77
2023/07/12 05:47:55;;;;;;;25.17;5.50;;;18.50;99.90;;;;;;5121763;27;20039;-76
2023/07/12 05:50:21;;;;;;;18.75;4.70;;;18.50;99.90;;;;;;5126778;27;20513;-76
2023/07/12 05:52:47;;;;;;;23.73;4.88;;;18.60;99.90;;;;;;5122544;27;20042;-75
2023/07/12 05:55:17;;;;;;;20.00;4.05;;;18.60;99.90;;;;;;5129043;27;20019;-76
2023/07/12 05:57:44;;;;;;;21.88;4.63;;;18.60;99.90;;;;;;5125320;27;20295;-76
2023/07/12 06:00:10;;;;;;;22.85;4.40;;;18.70;99.90;;;;;;5131717;27;20015;-77
2023/07/12 06:02:38;;;;;;;22.17;4.38;;;18.80;99.90;;;;;;5127516;27;20033;-77
2023/07/12 06:05:05;;;;;;;21.42;4.53;;;18.80;99.90;;;;;;5129366;27;20046;-77
2023/07/12 06:07:31;;;;;;;25.05;4.53;;;18.90;99.90;;;;;;5124610;27;20073;-72
2023/07/12 06:09:57;;;;;;;17.65;3.90;;;18.90;99.90;;;;;;5124204;27;20019;-73
2023/07/12 06:12:23;;;;;;;20.83;4.35;;;18.90;99.90;;;;;;5130670;27;20023;-73
2023/07/12 06:14:48;;;;;;;23.65;4.75;;;18.90;99.90;;;;;;5128724;27;20035;-73
2023/07/12 06:17:14;;;;;;;18.25;4.25;;;18.90;99.90;;;;;;5130412;27;20015;-73
2023/07/12 06:19:40;;;;;;;19.20;4.35;;;18.90;99.90;;;;;;5130805;27;20142;-73
2023/07/12 06:22:06;;;;;;;22.38;4.47;;;18.90;99.90;;;;;;5130461;27;20016;-73
2023/07/12 06:24:31;;;;;;;21.77;4.40;;;18.90;99.90;;;;;;5129328;27;20015;-73
2023/07/12 06:26:57;;;;;;;22.10;4.28;;;18.90;99.90;;;;;;5130256;28;20028;-73
2023/07/12 06:29:24;;;;;;;18.60;4.38;;;18.80;99.90;;;;;;5129638;28;20042;-73
2023/07/12 06:31:51;;;;;;;23.92;4.90;;;18.80;99.90;;;;;;5130018;28;20114;-73
2023/07/12 06:34:16;;;;;;;20.40;4.10;;;18.80;99.90;;;;;;5110016;28;20019;-73
2023/07/12 06:36:42;;;;;;;24.30;4.43;;;18.90;99.90;;;;;;5129839;28;20106;-73
2023/07/12 06:39:08;;;;;;;20.20;4.57;;;18.90;99.90;;;;;;5128068;28;20509;-73
2023/07/12 06:41:34;;;;;;;19.20;4.28;;;19.00;99.90;;;;;;5126890;28;20011;-73
2023/07/12 06:44:00;;;;;;;19.92;4.75;;;19.20;99.90;;;;;;5099147;28;20028;-74
2023/07/12 06:46:25;;;;;;;21.33;4.30;;;19.30;99.90;;;;;;5118193;28;20027;-73
2023/07/12 06:48:51;;;;;;;17.20;4.20;;;19.40;99.90;;;;;;5125294;28;20023;-71
2023/07/12 06:51:17;;;;;;;14.25;3.60;;;19.40;99.90;;;;;;5127942;28;20048;-71
2023/07/12 06:53:42;;;;;;;18.98;4.57;;;19.40;99.90;;;;;;5128892;28;20479;-71
2023/07/12 06:56:08;;;;;;;15.57;3.67;;;19.50;99.90;;;;;;5128769;28;20099;-71
2023/07/12 06:58:34;;;;;;;13.18;3.65;;;19.50;99.90;;;;;;5124112;28;20387;-71
2023/07/12 07:00:59;;;;;;;17.50;3.78;;;19.60;99.90;;;;;;5127803;28;20023;-71
2023/07/12 07:03:25;;;;;;;17.63;3.92;;;19.60;99.90;;;;;;5128167;28;20057;-72
2023/07/12 07:05:51;;;;;;;15.95;3.90;;;19.70;99.90;;;;;;5105168;28;20107;-72
2023/07/12 07:08:19;;;;;;;12.60;3.45;;;19.70;99.90;;;;;;5123483;28;20094;-73
2023/07/12 07:10:49;;;;;;;13.80;3.45;;;19.80;99.90;;;;;;5128600;28;20011;-71
2023/07/12 07:13:15;;;;;;;11.27;3.40;;;19.80;99.90;;;;;;5128568;28;20093;-71
2023/07/12 07:15:43;;;;;;;15.98;3.75;;;19.90;99.90;;;;;;5121456;28;20024;-72
2023/07/12 07:18:10;;;;;;;12.77;3.08;;;19.90;99.90;;;;;;5126660;28;20479;-72
2023/07/12 07:20:35;;;;;;;12.57;3.33;;;20.00;99.90;;;;;;5128706;28;20116;-72
2023/07/12 07:23:01;;;;;;;16.40;3.80;;;19.90;99.90;;;;;;5129368;28;20098;-72
2023/07/12 07:25:28;;;;;;;13.00;2.90;;;19.90;99.90;;;;;;5130138;28;20051;-72
2023/07/12 07:27:54;;;;;;;17.20;3.28;;;19.90;99.90;;;;;;5129890;28;20089;-71
2023/07/12 07:30:19;;;;;;;17.13;3.45;;;19.90;99.90;;;;;;5130056;28;20467;-72
2023/07/12 07:32:45;;;;;;;13.18;3.22;;;19.90;99.90;;;;;;5129328;28;20068;-73
2023/07/12 07:35:11;;;;;;;12.57;2.95;;;19.90;99.90;;;;;;5130121;27;20030;-72
2023/07/12 07:37:37;;;;;;;14.95;3.03;;;19.90;99.90;;;;;;5133311;27;20360;-72
2023/07/12 07:40:04;;;;;;;13.95;2.97;;;19.90;99.90;;;;;;5133464;27;20023;-72
2023/07/12 07:42:29;;;;;;;14.45;3.05;;;19.90;99.90;;;;;;5133400;27;20023;-72
2023/07/12 07:44:55;;;;;;;15.40;3.25;;;20.00;99.90;;;;;;5133744;27;20033;-72
2023/07/12 07:47:21;;;;;;;16.27;2.85;;;20.00;99.90;;;;;;5133615;27;20019;-72
2023/07/12 07:49:46;;;;;;;12.95;3.20;;;20.00;99.90;;;;;;5133729;27;20015;-72
2023/07/12 07:52:12;;;;;;;15.15;3.00;;;20.00;99.90;;;;;;5133159;27;20035;-72
2023/07/12 07:54:39;;;;;;;11.00;2.90;;;20.10;99.90;;;;;;5133138;27;20468;-72
2023/07/12 07:57:06;;;;;;;13.57;3.30;;;20.10;99.90;;;;;;5133444;27;20130;-72
2023/07/12 07:59:32;;;;;;;9.65;2.70;;;20.10;99.90;;;;;;5133091;27;20058;-72
2023/07/12 08:01:58;;;;;;;13.50;2.40;;;20.10;99.90;;;;;;5126811;27;20020;-72
2023/07/12 08:04:24;;;;;;;9.20;2.30;;;20.10;99.90;;;;;;5132728;27;20077;-72
2023/07/12 08:06:50;;;;;;;13.57;2.83;;;20.00;99.90;;;;;;5133178;27;20090;-73
2023/07/12 08:09:16;;;;;;;11.43;3.00;;;19.90;99.90;;;;;;5132903;27;20094;-73
2023/07/12 08:11:42;;;;;;;18.55;3.78;;;19.80;99.90;;;;;;5133089;27;20027;-73
2023/07/12 08:14:08;;;;;;;15.80;3.35;;;19.60;99.90;;;;;;5132925;27;20095;-73
2023/07/12 08:16:36;;;;;;;12.10;3.28;;;19.50;99.90;;;;;;5133278;27;20030;-73
2023/07/12 08:19:04;;;;;;;15.05;3.47;;;19.40;99.90;;;;;;5132622;27;20037;-73
2023/07/12 08:21:30;;;;;;;14.30;3.30;;;19.30;99.90;;;;;;5132845;27;20019;-73
2023/07/12 08:23:56;;;;;;;13.20;3.40;;;19.20;99.90;;;;;;5132538;27;20031;-73
2023/07/12 08:26:22;;;;;;;14.75;3.50;;;19.20;99.90;;;;;;5132931;27;20026;-72
2023/07/12 08:28:48;;;;;;;14.15;3.70;;;19.20;99.90;;;;;;5132528;27;20468;-73
2023/07/12 08:31:15;;;;;;;20.90;4.25;;;19.10;99.90;;;;;;5114264;27;20023;-73
2023/07/12 08:33:43;;;;;;;16.45;4.55;;;19.10;99.90;;;;;;5127723;27;20064;-72
2023/07/12 08:36:09;;;;;;;16.88;4.22;;;19.10;99.90;;;;;;5131318;27;20106;-72
2023/07/12 08:38:35;;;;;;;11.30;3.58;;;19.10;99.90;;;;;;5124595;27;20107;-72
2023/07/12 08:41:00;;;;;;;15.15;3.40;;;19.10;99.90;;;;;;5132423;27;20023;-73
2023/07/12 08:43:32;;;;;;;11.18;3.30;;;19.10;99.90;;;;;;5134237;27;20051;-78
2023/07/12 08:46:07;;;;;;;12.57;3.40;;;19.10;99.90;;;;;;5134118;27;20058;-72
2023/07/12 08:48:35;;;;;;;14.65;3.80;;;19.10;99.90;;;;;;5131677;27;20629;-72
2023/07/12 08:51:01;;;;;;;18.52;4.45;;;19.10;99.90;;;;;;5132239;27;20309;-72
2023/07/12 08:53:29;;;;;;;15.35;3.83;;;19.20;99.90;;;;;;5132355;27;20011;-72
2023/07/12 08:55:59;;;;;;;13.57;4.03;;;19.40;99.90;;;;;;5132506;27;20079;-72
2023/07/12 08:58:35;;;;;;;14.48;3.75;;;19.70;99.90;;;;;;5132886;27;20020;-80
2023/07/12 09:01:14;;;;;;;13.13;3.53;;;19.90;99.90;;;;;;5133644;27;20019;-73
2023/07/12 09:03:40;;;;;;;12.82;3.50;;;20.10;99.90;;;;;;5132244;27;20020;-76
2023/07/12 09:06:13;;;;;;;14.13;3.92;;;20.10;99.90;;;;;;5133519;27;20022;-76
2023/07/12 09:08:42;;;;;;;11.48;3.20;;;20.20;99.90;;;;;;5133263;27;20419;-76
2023/07/12 09:11:16;;;;;;;17.92;3.55;;;20.20;99.90;;;;;;5132706;27;20051;-76
2023/07/12 09:13:46;;;;;;;14.80;4.07;;;20.20;99.90;;;;;;5132727;27;20399;-76
2023/07/12 09:16:31;;;;;;;15.13;3.88;;;20.20;99.90;;;;;;5132399;27;20047;-76
2023/07/12 09:19:00;;;;;;;16.33;3.60;;;20.30;99.90;;;;;;5132116;27;20475;-75
2023/07/12 09:21:35;;;;;;;14.75;3.85;;;20.40;99.90;;;;;;5131678;27;20049;-74
2023/07/12 09:24:09;;;;;;;12.45;3.13;;;20.60;99.90;;;;;;5131963;27;20084;-75
2023/07/12 09:26:35;;;;;;;11.35;3.10;;;20.80;99.90;;;;;;5131808;27;20027;-74
2023/07/12 09:29:19;;;;;;;9.88;3.08;;;20.80;99.90;;;;;;5131472;27;20538;-74
2023/07/12 09:31:46;;;;;;;10.27;2.80;;;20.90;99.90;;;;;;5113471;27;20029;-77
2023/07/12 09:34:23;;;;;;;14.95;3.00;;;21.00;99.90;;;;;;5129455;27;20030;-76
2023/07/12 09:36:59;;;;;;;11.10;3.00;;;21.00;99.90;;;;;;5131981;27;20049;-75
2023/07/12 09:39:26;;;;;;;11.35;2.60;;;21.20;99.90;;;;;;5131472;27;20031;-74
2023/07/12 09:41:56;;;;;;;7.60;2.63;;;21.30;99.90;;;;;;5132104;27;20041;-75
2023/07/12 09:44:22;;;;;;;10.20;2.53;;;21.50;99.90;;;;;;5129846;27;20016;-72
2023/07/12 09:46:55;;;;;;;8.07;2.30;;;21.70;99.90;;;;;;5113214;27;20081;-71
2023/07/12 09:49:24;;;;;;;9.55;2.63;;;21.70;99.90;;;;;;5131535;27;20111;-72
2023/07/12 09:52:00;;;;;;;8.90;2.60;;;21.80;99.90;;;;;;5131117;27;20070;-71
2023/07/12 09:54:31;;;;;;;9.63;2.22;;;21.80;99.90;;;;;;5131335;27;20023;-71
2023/07/12 09:57:07;;;;;;;6.57;2.17;;;21.80;99.90;;;;;;5127759;27;20126;-71
2023/07/12 09:59:50;;;;;;;10.75;2.97;;;21.70;99.90;;;;;;5130818;27;20060;-71
2023/07/12 10:02:25;;;;;;;12.57;3.15;;;21.80;99.90;;;;;;5119520;27;20027;-71
2023/07/12 10:05:10;;;;;;;14.38;2.90;;;21.80;99.90;;;;;;5130735;27;20030;-71
2023/07/12 10:08:01;;;;;;;7.75;2.47;;;22.10;99.90;;;;;;5131064;27;20038;-71
2023/07/12 10:10:43;;;;;;;10.38;2.83;;;22.30;99.90;;;;;;5131096;27;20037;-71
2023/07/12 10:13:34;;;;;;;9.82;2.58;;;22.40;99.90;;;;;;5124905;27;20023;-71
2023/07/12 10:16:00;;;;;;;12.68;3.22;;;22.60;99.90;;;;;;5131411;27;20019;-77
2023/07/12 10:18:30;;;;;;;9.85;2.58;;;22.70;99.90;;;;;;5122486;27;20054;-76
2023/07/12 10:20:56;;;;;;;10.40;2.72;;;22.70;99.90;;;;;;5130730;27;20019;-76
2023/07/12 10:23:27;;;;;;;11.18;3.00;;;22.80;99.90;;;;;;5130768;27;20537;-75
2023/07/12 10:26:04;;;;;;;11.52;3.00;;;22.70;99.90;;;;;;5130984;27;20160;-71
2023/07/12 10:28:45;;;;;;;11.10;2.90;;;22.70;99.90;;;;;;5131014;27;20020;-77
2023/07/12 10:31:36;;;;;;;7.93;2.80;;;22.80;99.90;;;;;;5125919;28;20106;-78
2023/07/12 10:34:41;;;;;;;8.80;2.70;;;22.80;99.90;;;;;;5123653;28;20024;-80
2023/07/12 10:37:33;;;;;;;8.95;2.38;;;22.80;99.90;;;;;;5122069;28;20391;-72
2023/07/12 10:39:59;;;;;;;7.15;2.60;;;22.80;99.90;;;;;;5098677;28;20042;-72
2023/07/12 10:43:04;;;;;;;9.23;2.50;;;22.60;99.90;;;;;;5113536;28;20020;-71
2023/07/12 10:45:33;;;;;;;8.52;2.53;;;22.50;99.90;;;;;;5103243;28;20062;-72
2023/07/12 10:48:00;;;;;;;9.52;2.85;;;22.50;99.90;;;;;;5130531;28;20007;-72
2023/07/12 10:50:48;;;;;;;11.63;2.95;;;22.50;99.90;;;;;;5130084;28;20012;-72
2023/07/12 10:53:21;;;;;;;11.45;2.65;;;22.70;99.90;;;;;;5006913;28;20034;-72
2023/07/12 10:56:39;;;;;;;6.90;2.47;;;22.80;99.90;;;;;;5007003;28;20033;-72
2023/07/12 10:59:27;;;;;;;7.10;2.53;;;22.80;99.90;;;;;;5018163;28;20070;-72
2023/07/12 11:01:55;;;;;;;8.38;2.55;;;22.70;99.90;;;;;;5006204;28;20079;-72
2023/07/12 11:04:29;;;;;;;7.35;2.40;;;22.70;99.90;;;;;;5006135;28;20038;-71
2023/07/12 11:06:58;;;;;;;8.05;2.50;;;22.80;99.90;;;;;;5007285;28;20385;-71
2023/07/12 11:09:26;;;;;;;9.50;2.80;;;22.80;99.90;;;;;;4991704;28;20105;-72
2023/07/12 11:12:08;;;;;;;9.57;2.33;;;23.00;99.90;;;;;;5006096;28;20028;-72
2023/07/12 11:14:37;;;;;;;8.85;2.38;;;23.20;99.90;;;;;;5010617;28;20024;-72
2023/07/12 11:17:09;;;;;;;6.68;2.40;;;23.20;99.90;;;;;;5010088;28;20427;-72
2023/07/12 11:19:44;;;;;;;7.53;2.20;;;23.20;99.90;;;;;;5010525;28;20026;-72
2023/07/12 11:22:43;;;;;;;8.55;2.40;;;23.00;99.90;;;;;;5009815;28;20016;-72
2023/07/12 11:25:44;;;;;;;7.22;2.17;;;22.90;99.90;;;;;;5075062;28;20026;-72
2023/07/12 11:28:28;;;;;;;9.00;2.40;;;22.60;99.90;;;;;;5009581;28;20546;-72
2023/07/12 11:31:11;;;;;;;5.68;2.03;;;22.60;99.90;;;;;;5001648;28;20533;-72
2023/07/12 11:33:37;;;;;;;8.02;2.25;;;22.80;99.90;;;;;;5004546;28;20033;-72
2023/07/12 11:36:13;;;;;;;10.35;2.42;;;22.90;99.90;;;;;;5010055;28;20026;-72
2023/07/12 11:38:43;;;;;;;11.48;2.00;;;23.00;99.90;;;;;;5009957;28;20129;-72
2023/07/12 11:41:39;;;;;;;3.47;1.40;;;23.10;99.90;;;;;;5009904;28;20018;-72
2023/07/12 11:44:07;;;;;;;6.00;1.40;;;23.20;99.90;;;;;;5013259;28;20034;-71
2023/07/12 11:46:37;;;;;;;6.97;1.67;;;23.20;99.90;;;;;;5009481;28;20029;-72
2023/07/12 11:49:16;;;;;;;6.55;1.40;;;23.10;99.90;;;;;;5009582;28;20029;-72
2023/07/12 11:51:45;;;;;;;4.43;1.50;;;23.10;99.90;;;;;;5074438;27;20054;-72
2023/07/12 11:54:22;;;;;;;6.47;1.60;;;23.10;99.90;;;;;;5111764;28;20114;-72
2023/07/12 11:56:50;;;;;;;6.15;1.70;;;23.20;99.90;;;;;;5132851;27;20023;-72
2023/07/12 11:59:22;;;;;;;10.50;2.42;;;23.30;99.90;;;;;;5133431;27;20031;-72
2023/07/12 12:01:50;;;;;;;7.57;1.38;;;23.40;99.90;;;;;;5133817;27;20015;-72
2023/07/12 12:04:21;;;;;;;6.07;1.58;;;23.40;99.90;;;;;;5133427;27;20028;-72
2023/07/12 12:06:49;;;;;;;6.78;1.58;;;23.40;99.90;;;;;;5133390;27;20416;-72
2023/07/12 12:09:15;;;;;;;5.28;1.10;;;23.50;99.90;;;;;;5133615;27;20027;-72
2023/07/12 12:11:41;;;;;;;4.82;1.33;;;23.60;99.80;;;;;;5133003;27;20018;-72
2023/07/12 12:14:21;;;;;;;4.95;1.63;;;23.70;99.60;;;;;;5133435;27;20030;-72
2023/07/12 12:16:55;;;;;;;3.47;1.55;;;23.70;99.20;;;;;;5133175;27;20099;-72
2023/07/12 12:19:26;;;;;;;6.80;1.67;;;23.60;99.70;;;;;;5124876;27;20023;-72
2023/07/12 12:22:00;;;;;;;5.28;1.45;;;23.70;99.30;;;;;;5133609;27;20023;-72
2023/07/12 12:24:26;;;;;;;5.93;1.52;;;23.80;98.90;;;;;;5132994;27;20030;-72
2023/07/12 12:26:52;;;;;;;7.18;1.63;;;23.70;99.00;;;;;;5132964;27;20031;-72
2023/07/12 12:29:22;;;;;;;9.10;1.50;;;23.60;98.70;;;;;;5123314;27;20019;-72
2023/07/12 12:31:56;;;;;;;4.80;1.83;;;23.60;99.00;;;;;;5132818;27;20034;-72
2023/07/12 12:34:26;;;;;;;5.43;1.67;;;23.70;99.60;;;;;;5132727;27;20031;-72
2023/07/12 12:37:09;;;;;;;6.72;1.80;;;23.80;99.50;;;;;;5133058;27;20549;-72
2023/07/12 12:39:35;;;;;;;6.68;1.70;;;23.90;98.60;;;;;;5124504;27;20016;-72
2023/07/12 12:42:18;;;;;;;5.32;1.40;;;24.10;98.00;;;;;;5132674;27;20468;-72
2023/07/12 12:44:44;;;;;;;4.82;1.58;;;24.20;96.30;;;;;;5133023;27;20029;-72
2023/07/12 12:47:28;;;;;;;5.32;1.30;;;24.00;96.30;;;;;;5132740;27;20562;-72
2023/07/12 12:49:54;;;;;;;3.55;1.10;;;24.00;95.60;;;;;;5132856;27;20038;-72